Terminal Aerodrome Forecast
Issued by NWS

Home | Current Version | Previous Version | Text Only | Print | Product List | Glossary On
Versions: 1 2 3 4 5 6 7 8 9 10 11 12 13 14 15 16 17 18 19 20 21 22 23
000
FTUS43 KDLH 281300 AAA
TAFHYR
TAF AMD
KHYR 281326Z 2813/2912 13005KT 6SM -SN SCT025 OVC040
      TEMPO 2813/2816 3SM -FZDZSN BR OVC025
     FM290000 15008KT P6SM VCSH OVC025
     FM290400 16008KT 6SM -PL OVC018=

USA.gov is the U.S. government's official web portal to all federal, state and local government web resources and services.